Time;durP1;ratioP1;P1;durP2;ratioP2;P2;SDS_P1;SDS_P2;PMS_P1;PMS_P2;Temp;Humidity;BMP_temperature;BMP_pressure;BME280_temperature;BME280_humidity;BME280_pressure;Samples;Min_cycle;Max_cycle;Signal;HPM_P1;HPM_P2
2023/02/09 00:00:24;;;;;;;20.43;11.97;;;1.30;99.90;;;;;;5073357;28;20438;-74
2023/02/09 00:02:51;;;;;;;20.58;14.75;;;1.20;99.90;;;;;;5072561;28;20424;-76
2023/02/09 00:05:18;;;;;;;18.60;12.37;;;1.20;99.90;;;;;;5073296;28;20210;-83
2023/02/09 00:07:45;;;;;;;18.60;12.27;;;1.20;99.90;;;;;;5073444;28;20450;-75
2023/02/09 00:10:11;;;;;;;19.53;11.93;;;1.30;99.90;;;;;;5073195;28;20442;-82
2023/02/09 00:15:23;;;;;;;19.17;11.93;;;1.30;99.90;;;;;;5073421;28;20635;-80
2023/02/09 00:17:50;;;;;;;17.87;11.87;;;1.30;99.90;;;;;;5073373;28;20485;-76
2023/02/09 00:20:19;;;;;;;18.00;11.37;;;1.20;99.90;;;;;;5073088;28;20474;-84
2023/02/09 00:22:46;;;;;;;19.03;11.73;;;1.20;99.90;;;;;;5073123;28;20442;-74
2023/02/09 00:25:14;;;;;;;17.77;11.77;;;1.10;99.90;;;;;;5073503;28;20426;-82
2023/02/09 00:27:42;;;;;;;18.67;12.23;;;1.10;99.90;;;;;;5073284;28;20450;-79
2023/02/09 00:30:10;;;;;;;14.97;11.70;;;1.10;99.90;;;;;;5075396;28;20461;-75
2023/02/09 00:32:36;;;;;;;16.07;10.87;;;1.10;99.90;;;;;;5077020;28;20430;-74
2023/02/09 00:35:06;;;;;;;16.17;11.73;;;1.00;99.90;;;;;;5076627;28;20976;-73
2023/02/09 00:37:35;;;;;;;20.20;11.90;;;1.00;99.90;;;;;;5076790;28;20442;-74
2023/02/09 00:40:02;;;;;;;22.77;12.23;;;1.00;99.90;;;;;;5076816;28;20937;-76
2023/02/09 00:42:29;;;;;;;17.63;11.77;;;1.00;99.90;;;;;;5076585;28;20937;-73
2023/02/09 00:44:57;;;;;;;15.57;11.00;;;1.00;99.90;;;;;;5076622;28;20437;-74
2023/02/09 00:47:23;;;;;;;16.60;11.63;;;1.00;99.90;;;;;;5076901;28;20434;-74
2023/02/09 00:49:50;;;;;;;19.33;11.97;;;1.00;99.90;;;;;;5076611;28;20438;-78
2023/02/09 00:52:17;;;;;;;21.20;11.63;;;1.00;99.90;;;;;;5076435;28;20443;-74
2023/02/09 00:54:44;;;;;;;18.90;11.40;;;0.90;99.90;;;;;;5076455;28;20443;-73
2023/02/09 00:57:10;;;;;;;18.90;12.73;;;1.00;99.90;;;;;;5076526;28;20449;-79
2023/02/09 00:59:39;;;;;;;17.20;11.33;;;0.90;99.90;;;;;;5076274;28;20493;-74
2023/02/09 01:02:07;;;;;;;14.67;11.37;;;0.80;99.90;;;;;;5076337;28;20446;-74
2023/02/09 01:04:34;;;;;;;16.20;11.27;;;0.90;99.90;;;;;;5075676;28;20812;-74
2023/02/09 01:07:01;;;;;;;17.93;11.30;;;0.90;99.90;;;;;;5076489;28;20434;-74
2023/02/09 01:09:27;;;;;;;18.03;10.77;;;0.90;99.90;;;;;;5075955;28;20983;-74
2023/02/09 01:11:54;;;;;;;17.97;11.83;;;0.90;99.90;;;;;;5075832;28;20521;-74
2023/02/09 01:14:21;;;;;;;15.13;10.97;;;0.90;99.90;;;;;;5075995;28;20430;-77
2023/02/09 01:16:48;;;;;;;18.17;11.90;;;0.80;99.90;;;;;;5076212;28;20427;-78
2023/02/09 01:19:16;;;;;;;18.27;11.30;;;0.80;99.90;;;;;;5075865;28;20500;-73
2023/02/09 01:21:42;;;;;;;17.27;11.57;;;0.70;99.90;;;;;;5075698;28;20812;-75
2023/02/09 01:24:14;;;;;;;18.90;10.90;;;0.60;99.90;;;;;;5075881;28;20438;-72
2023/02/09 01:26:41;;;;;;;13.77;10.27;;;0.40;99.90;;;;;;5075883;28;20442;-77
2023/02/09 01:29:08;;;;;;;15.07;10.30;;;0.50;99.90;;;;;;5075482;28;20422;-76
2023/02/09 01:31:35;;;;;;;15.82;12.48;;;0.40;99.90;;;;;;5075063;28;20424;-73
2023/02/09 01:34:03;;;;;;;14.73;9.93;;;0.60;99.90;;;;;;5075612;28;20197;-73
2023/02/09 01:36:33;;;;;;;15.07;10.10;;;0.70;99.90;;;;;;5075717;28;20443;-72
2023/02/09 01:39:01;;;;;;;11.97;9.00;;;0.70;99.90;;;;;;5075826;28;20478;-75
2023/02/09 01:41:29;;;;;;;12.43;9.20;;;0.80;99.90;;;;;;5074562;28;20455;-72
2023/02/09 01:43:59;;;;;;;15.40;8.83;;;0.70;99.90;;;;;;5075593;28;20435;-72
2023/02/09 01:46:28;;;;;;;13.73;8.23;;;0.70;99.90;;;;;;5075298;28;20439;-77
2023/02/09 01:49:00;;;;;;;13.33;7.30;;;0.70;99.90;;;;;;5075675;28;20435;-72
2023/02/09 01:51:29;;;;;;;9.97;7.27;;;0.80;99.90;;;;;;5075375;28;20438;-72
2023/02/09 01:53:57;;;;;;;10.47;8.03;;;0.90;99.90;;;;;;5075598;28;20442;-73
2023/02/09 01:56:28;;;;;;;13.17;7.27;;;1.00;99.90;;;;;;5074775;28;20439;-75
2023/02/09 01:58:55;;;;;;;10.57;7.70;;;1.00;99.90;;;;;;5075323;28;20490;-72
2023/02/09 02:01:23;;;;;;;10.53;7.00;;;1.10;99.90;;;;;;5074670;28;20517;-73
2023/02/09 02:03:51;;;;;;;9.13;7.03;;;1.00;99.90;;;;;;5075314;28;20454;-72
2023/02/09 02:06:18;;;;;;;12.40;7.20;;;0.90;99.90;;;;;;5090987;28;20434;-72
2023/02/09 02:08:49;;;;;;;8.00;6.63;;;1.00;99.90;;;;;;5095355;28;21011;-72
2023/02/09 02:11:18;;;;;;;13.60;6.47;;;1.10;99.90;;;;;;5094599;28;20437;-85
2023/02/09 02:13:45;;;;;;;10.27;6.57;;;1.20;99.90;;;;;;5095340;28;20446;-77
2023/02/09 02:16:25;;;;;;;8.67;6.80;;;1.20;99.90;;;;;;5095312;28;20796;-79
2023/02/09 02:19:25;;;;;;;10.57;6.07;;;1.20;99.90;;;;;;5095836;28;20484;-80
2023/02/09 02:22:24;;;;;;;9.73;6.80;;;1.30;99.90;;;;;;5087881;28;20458;-81
2023/02/09 02:25:18;;;;;;;12.87;7.20;;;1.20;99.90;;;;;;5074991;28;20458;-75
2023/02/09 02:27:54;;;;;;;9.60;6.93;;;1.20;99.90;;;;;;5075343;28;20458;-81
2023/02/09 02:30:41;;;;;;;9.60;7.13;;;1.20;99.90;;;;;;5075046;28;20450;-75
2023/02/09 02:33:29;;;;;;;10.63;7.23;;;1.20;99.90;;;;;;5075141;28;20457;-89
2023/02/09 02:36:03;;;;;;;11.33;6.90;;;1.10;99.90;;;;;;5075053;28;20430;-74
2023/02/09 02:38:35;;;;;;;11.70;6.83;;;1.10;99.90;;;;;;5074663;28;20478;-74
2023/02/09 02:41:12;;;;;;;11.23;6.90;;;1.10;99.90;;;;;;5073694;28;20904;-73
2023/02/09 02:43:49;;;;;;;12.77;7.13;;;1.10;99.90;;;;;;5074614;28;20431;-74
2023/02/09 02:46:23;;;;;;;10.10;6.53;;;1.20;99.90;;;;;;5073981;28;20446;-72
2023/02/09 02:48:55;;;;;;;10.07;6.60;;;1.10;99.90;;;;;;5074347;28;20456;-72
2023/02/09 02:51:27;;;;;;;10.90;7.00;;;1.10;99.90;;;;;;5073844;28;20442;-72
2023/02/09 02:53:58;;;;;;;11.57;7.47;;;1.10;99.90;;;;;;5073307;28;20458;-73
2023/02/09 02:56:29;;;;;;;9.37;6.93;;;1.10;99.90;;;;;;5073982;28;20439;-74
2023/02/09 02:58:59;;;;;;;12.43;6.80;;;1.10;99.90;;;;;;5073990;28;20504;-72
2023/02/09 03:01:31;;;;;;;8.63;7.17;;;1.10;99.90;;;;;;5073895;28;20427;-74
2023/02/09 03:04:01;;;;;;;12.33;6.97;;;1.10;99.90;;;;;;5074288;28;20446;-78
2023/02/09 03:06:28;;;;;;;11.67;7.43;;;1.00;99.90;;;;;;5074230;28;20438;-72
2023/02/09 03:08:57;;;;;;;11.27;7.50;;;0.90;99.90;;;;;;5073471;28;20537;-73
2023/02/09 03:11:30;;;;;;;10.73;7.87;;;0.70;99.90;;;;;;5073762;28;20443;-72
2023/02/09 03:14:11;;;;;;;12.43;6.60;;;0.60;99.90;;;;;;5073804;28;20453;-72
2023/02/09 03:16:45;;;;;;;9.23;6.40;;;0.70;99.90;;;;;;5073829;28;20442;-74
2023/02/09 03:19:24;;;;;;;10.87;6.77;;;0.70;99.90;;;;;;5073308;28;20985;-74
2023/02/09 03:21:54;;;;;;;6.83;6.03;;;0.70;99.90;;;;;;5073451;28;20453;-73
2023/02/09 03:24:33;;;;;;;9.80;6.53;;;0.70;99.90;;;;;;5073298;28;20787;-75
2023/02/09 03:27:06;;;;;;;10.00;6.87;;;0.70;99.90;;;;;;5073742;28;20455;-76
2023/02/09 03:29:34;;;;;;;7.73;5.93;;;0.80;99.90;;;;;;5073532;28;20446;-74
2023/02/09 03:32:01;;;;;;;13.27;6.70;;;0.80;99.90;;;;;;5073692;28;20434;-73
2023/02/09 03:34:29;;;;;;;7.90;6.00;;;0.90;99.90;;;;;;5073473;28;20454;-73
2023/02/09 03:36:57;;;;;;;8.67;6.03;;;0.90;99.90;;;;;;5073721;28;20431;-75
2023/02/09 03:39:24;;;;;;;11.87;5.83;;;1.00;99.90;;;;;;5073180;28;20823;-74
2023/02/09 03:41:51;;;;;;;10.73;6.43;;;0.90;99.90;;;;;;5073077;28;21036;-74
2023/02/09 03:44:26;;;;;;;12.67;7.13;;;0.90;99.90;;;;;;5073382;28;20443;-75
2023/02/09 03:46:53;;;;;;;8.33;5.97;;;0.80;99.90;;;;;;5073339;28;20430;-72
2023/02/09 03:49:20;;;;;;;9.10;6.80;;;0.70;99.90;;;;;;5073291;28;20446;-72
2023/02/09 03:51:48;;;;;;;10.20;6.90;;;0.80;99.90;;;;;;5073090;28;20434;-73
2023/02/09 03:54:15;;;;;;;11.70;7.00;;;0.80;99.90;;;;;;5072931;28;20466;-81
2023/02/09 03:56:42;;;;;;;10.68;8.20;;;0.80;99.90;;;;;;5072390;28;20440;-72
2023/02/09 03:59:08;;;;;;;10.37;7.23;;;0.80;99.90;;;;;;5073270;28;20225;-75
2023/02/09 04:01:36;;;;;;;9.23;6.70;;;0.80;99.90;;;;;;5072987;28;20929;-73
2023/02/09 04:04:03;;;;;;;12.17;6.70;;;0.80;99.90;;;;;;5072510;28;20552;-73
2023/02/09 04:06:32;;;;;;;11.87;6.90;;;0.70;99.90;;;;;;5073306;28;20438;-73
2023/02/09 04:09:01;;;;;;;10.47;6.97;;;0.70;99.90;;;;;;5072874;28;20446;-73
2023/02/09 04:11:27;;;;;;;10.67;6.60;;;0.60;99.90;;;;;;5072621;28;20447;-72
2023/02/09 04:13:54;;;;;;;9.17;6.50;;;0.40;99.90;;;;;;5072782;28;20446;-73
2023/02/09 04:16:21;;;;;;;8.67;6.20;;;0.40;99.90;;;;;;5073014;28;20446;-83
2023/02/09 04:18:48;;;;;;;7.40;6.13;;;0.50;99.90;;;;;;5072545;28;20466;-71
2023/02/09 04:21:15;;;;;;;10.50;6.67;;;0.50;99.90;;;;;;5072696;28;20453;-73
2023/02/09 04:23:42;;;;;;;11.83;7.73;;;0.50;99.90;;;;;;5073098;28;20454;-73
2023/02/09 04:26:10;;;;;;;14.60;8.98;;;0.60;99.90;;;;;;5072231;28;20907;-74
2023/02/09 04:28:37;;;;;;;10.70;7.40;;;0.50;99.90;;;;;;5072441;28;20208;-72
2023/02/09 04:31:03;;;;;;;14.40;7.30;;;0.50;99.90;;;;;;5072807;28;20434;-74
2023/02/09 04:33:30;;;;;;;12.43;7.13;;;0.40;99.90;;;;;;5072798;28;20437;-73
2023/02/09 04:35:58;;;;;;;9.97;6.57;;;0.40;99.90;;;;;;5073383;28;20472;-83
2023/02/09 04:38:24;;;;;;;10.70;6.73;;;0.50;99.90;;;;;;5083833;28;20455;-80
2023/02/09 04:40:53;;;;;;;9.50;6.70;;;0.50;99.90;;;;;;5085454;28;20489;-74
2023/02/09 04:43:21;;;;;;;11.07;6.30;;;0.50;99.90;;;;;;5093084;28;20446;-76
2023/02/09 04:45:48;;;;;;;11.33;6.73;;;0.50;99.90;;;;;;5092778;28;20446;-74
2023/02/09 04:48:18;;;;;;;10.07;6.63;;;0.50;99.90;;;;;;5093024;28;20445;-74
2023/02/09 04:50:45;;;;;;;9.10;6.43;;;0.40;99.90;;;;;;5092386;28;20444;-90
2023/02/09 04:53:12;;;;;;;9.60;6.10;;;0.40;99.90;;;;;;5092561;28;20444;-73
2023/02/09 04:55:39;;;;;;;14.52;9.60;;;0.50;99.90;;;;;;5078000;28;20426;-91
2023/02/09 05:00:54;;;;;;;12.70;7.87;;;0.50;99.90;;;;;;5092051;28;20546;-79
2023/02/09 05:03:21;;;;;;;13.37;7.20;;;0.40;99.90;;;;;;5093178;28;20438;-75
2023/02/09 05:05:47;;;;;;;10.93;7.00;;;0.40;99.90;;;;;;5092497;28;20449;-91
2023/02/09 05:08:14;;;;;;;10.23;7.27;;;0.30;99.90;;;;;;5092948;28;20457;-74
2023/02/09 05:10:41;;;;;;;9.73;7.10;;;0.30;99.90;;;;;;5092444;28;20442;-73
2023/02/09 05:13:07;;;;;;;14.73;7.90;;;0.40;99.90;;;;;;5092828;28;20441;-74
2023/02/09 05:15:34;;;;;;;10.20;7.67;;;0.40;99.90;;;;;;5092641;28;20472;-92
2023/02/09 05:18:02;;;;;;;11.00;7.43;;;0.60;99.90;;;;;;5096597;28;20445;-74
2023/02/09 05:20:30;;;;;;;9.80;7.60;;;0.40;99.90;;;;;;5096063;28;21018;-73
2023/02/09 05:22:57;;;;;;;13.33;7.47;;;0.40;99.90;;;;;;5096179;28;20444;-77
2023/02/09 05:25:23;;;;;;;12.07;8.03;;;0.40;99.90;;;;;;5096361;28;20787;-72
2023/02/09 05:27:50;;;;;;;12.47;6.80;;;0.40;99.90;;;;;;5095801;28;20452;-81
2023/02/09 05:30:17;;;;;;;14.00;7.80;;;0.30;99.90;;;;;;5096102;28;20803;-73
2023/02/09 05:32:44;;;;;;;12.93;7.33;;;0.40;99.90;;;;;;5095783;28;20441;-86
2023/02/09 05:35:12;;;;;;;10.13;7.30;;;0.50;99.90;;;;;;5095526;28;20445;-75
2023/02/09 05:37:39;;;;;;;11.57;7.10;;;0.40;99.90;;;;;;5094971;28;20800;-72
2023/02/09 05:40:07;;;;;;;15.90;8.77;;;0.40;99.90;;;;;;5086219;28;20478;-74
2023/02/09 05:42:34;;;;;;;11.87;7.30;;;0.40;99.90;;;;;;5088548;28;20540;-73
2023/02/09 05:45:00;;;;;;;10.83;6.93;;;0.30;99.90;;;;;;5086558;28;20470;-77
2023/02/09 05:47:27;;;;;;;10.97;7.37;;;0.30;99.90;;;;;;5089090;28;20460;-74
2023/02/09 05:49:54;;;;;;;18.00;8.23;;;0.30;99.90;;;;;;5087167;28;20469;-73
2023/02/09 05:52:22;;;;;;;11.60;7.33;;;0.30;99.90;;;;;;5086310;28;20457;-73
2023/02/09 05:54:49;;;;;;;10.07;7.70;;;0.30;99.90;;;;;;5092971;28;20453;-73
2023/02/09 05:57:17;;;;;;;12.13;7.80;;;0.20;99.90;;;;;;5095436;28;20437;-74
2023/02/09 05:59:44;;;;;;;15.60;7.87;;;0.20;99.90;;;;;;5096068;28;20857;-74
2023/02/09 06:02:11;;;;;;;11.90;7.83;;;0.20;99.90;;;;;;5095251;28;20445;-78
2023/02/09 06:04:38;;;;;;;16.57;9.83;;;0.30;99.90;;;;;;5094848;28;20925;-74
2023/02/09 06:07:05;;;;;;;14.60;7.87;;;0.20;99.90;;;;;;5094910;28;20895;-78
2023/02/09 06:09:33;;;;;;;13.10;8.03;;;0.20;99.90;;;;;;5094929;28;20441;-76
2023/02/09 06:12:00;;;;;;;15.00;7.67;;;0.20;99.90;;;;;;5095255;28;20458;-74
2023/02/09 06:14:27;;;;;;;15.03;7.17;;;0.20;99.90;;;;;;5095056;28;20946;-73
2023/02/09 06:16:53;;;;;;;12.50;7.63;;;0.20;99.90;;;;;;5094881;28;20446;-73
2023/02/09 06:19:21;;;;;;;17.53;7.70;;;0.20;99.90;;;;;;5094557;28;20465;-75
2023/02/09 06:21:48;;;;;;;17.17;10.10;;;0.20;99.90;;;;;;5094332;28;20430;-73
2023/02/09 06:24:16;;;;;;;22.40;8.53;;;0.20;99.90;;;;;;5094804;28;20236;-80
2023/02/09 06:26:44;;;;;;;17.33;8.70;;;0.20;99.90;;;;;;5094450;28;20471;-73
2023/02/09 06:29:11;;;;;;;16.73;8.40;;;0.30;99.90;;;;;;5094577;28;20796;-75
2023/02/09 06:31:40;;;;;;;11.33;7.67;;;0.40;99.90;;;;;;5093512;28;20830;-73
2023/02/09 06:34:07;;;;;;;13.30;8.03;;;0.40;99.90;;;;;;5088360;28;20460;-83
2023/02/09 06:36:34;;;;;;;11.60;7.80;;;0.30;99.90;;;;;;5083903;28;20447;-77
2023/02/09 06:39:01;;;;;;;14.97;8.27;;;0.40;99.90;;;;;;5094536;28;20452;-74
2023/02/09 06:41:28;;;;;;;13.50;7.67;;;0.30;99.90;;;;;;5094326;28;20496;-73
2023/02/09 06:43:56;;;;;;;15.60;8.40;;;0.20;99.90;;;;;;5094001;28;20924;-73
2023/02/09 06:46:23;;;;;;;13.13;8.30;;;0.20;99.90;;;;;;5094051;28;20433;-78
2023/02/09 06:48:49;;;;;;;15.70;8.63;;;0.30;99.90;;;;;;5094697;28;20438;-76
2023/02/09 06:51:16;;;;;;;15.47;8.40;;;0.40;99.90;;;;;;5094814;28;20451;-74
2023/02/09 06:53:44;;;;;;;14.67;8.57;;;0.30;99.90;;;;;;5090063;28;20525;-91
2023/02/09 06:56:12;;;;;;;14.47;8.57;;;0.20;99.90;;;;;;5094838;28;20441;-92
2023/02/09 06:58:39;;;;;;;17.03;8.87;;;0.30;99.90;;;;;;5094905;28;20924;-86
2023/02/09 07:01:09;;;;;;;15.90;9.90;;;0.30;99.90;;;;;;5094494;28;20489;-91
2023/02/09 07:03:37;;;;;;;49.10;17.90;;;0.20;99.90;;;;;;5094937;28;20449;-82
2023/02/09 07:06:06;;;;;;;13.97;9.83;;;0.20;99.90;;;;;;5094413;28;20447;-84
2023/02/09 07:08:33;;;;;;;16.87;8.30;;;0.10;99.90;;;;;;5094508;28;20454;-79
2023/02/09 07:11:02;;;;;;;13.00;8.77;;;0.10;99.90;;;;;;5093954;28;20445;-78
2023/02/09 07:13:30;;;;;;;16.00;9.23;;;0.00;99.90;;;;;;5080655;28;20928;-74
2023/02/09 07:15:58;;;;;;;15.50;9.50;;;0.00;99.90;;;;;;5093530;28;20485;-74
2023/02/09 07:18:27;;;;;;;16.53;8.27;;;0.00;99.90;;;;;;5093756;28;20477;-84
2023/02/09 07:20:54;;;;;;;16.37;8.33;;;0.10;99.90;;;;;;5093849;28;20485;-77
2023/02/09 07:23:22;;;;;;;15.87;7.73;;;0.10;99.90;;;;;;5093812;28;20442;-73
2023/02/09 07:25:48;;;;;;;24.17;9.23;;;0.10;99.90;;;;;;5093597;28;20437;-73
2023/02/09 07:28:15;;;;;;;14.40;8.63;;;0.10;99.90;;;;;;5092492;28;20468;-78
2023/02/09 07:30:42;;;;;;;14.93;8.07;;;0.10;99.90;;;;;;5093095;28;20445;-74
2023/02/09 07:33:09;;;;;;;14.43;7.87;;;0.10;99.90;;;;;;5093554;28;20446;-74
2023/02/09 07:35:39;;;;;;;16.37;8.57;;;0.10;99.90;;;;;;5093280;28;20438;-75
2023/02/09 07:38:06;;;;;;;19.03;8.83;;;0.10;99.90;;;;;;5080417;28;20445;-83
2023/02/09 07:40:32;;;;;;;23.97;8.87;;;0.20;99.90;;;;;;5092371;28;21000;-76
2023/02/09 07:42:59;;;;;;;17.00;8.43;;;0.30;99.90;;;;;;5093028;28;20441;-78
2023/02/09 07:45:26;;;;;;;13.10;7.83;;;0.40;99.90;;;;;;5093017;28;20430;-74
2023/02/09 07:47:53;;;;;;;26.70;9.77;;;0.40;99.90;;;;;;5092280;28;20777;-75
2023/02/09 07:50:19;;;;;;;18.08;12.43;;;0.30;99.90;;;;;;5090126;28;20508;-75
2023/02/09 07:52:48;;;;;;;16.17;9.93;;;0.40;99.90;;;;;;5078862;28;20205;-75
2023/02/09 07:55:14;;;;;;;20.07;9.77;;;0.50;99.90;;;;;;5093255;28;20920;-74
2023/02/09 07:57:41;;;;;;;17.50;9.30;;;0.40;99.90;;;;;;5092832;28;20453;-75
2023/02/09 08:00:09;;;;;;;14.73;8.33;;;0.30;99.90;;;;;;5092684;28;20477;-74
2023/02/09 08:02:37;;;;;;;25.07;9.30;;;0.40;99.90;;;;;;5092955;28;20460;-74
2023/02/09 08:05:09;;;;;;;13.90;8.13;;;0.50;99.90;;;;;;5093068;28;20441;-73
2023/02/09 08:07:36;;;;;;;18.73;8.17;;;0.40;99.90;;;;;;5083194;28;20443;-74
2023/02/09 08:10:04;;;;;;;13.27;8.90;;;0.30;99.90;;;;;;5084226;28;20523;-73
2023/02/09 08:15:20;;;;;;;20.73;8.27;;;0.30;99.90;;;;;;5092043;28;20429;-79
2023/02/09 08:17:50;;;;;;;18.53;8.67;;;0.30;99.90;;;;;;5091992;28;20852;-74
2023/02/09 08:20:20;;;;;;;12.53;7.93;;;0.30;99.90;;;;;;5091592;28;20486;-74
2023/02/09 08:22:51;;;;;;;13.57;8.20;;;0.30;99.90;;;;;;5092576;28;20453;-77
2023/02/09 08:25:22;;;;;;;13.60;8.50;;;0.30;99.90;;;;;;5092048;28;20441;-73
2023/02/09 08:27:49;;;;;;;17.27;8.63;;;0.50;99.90;;;;;;5091551;28;20448;-74
2023/02/09 08:30:18;;;;;;;16.60;9.07;;;0.60;99.90;;;;;;5091649;28;20486;-73
2023/02/09 08:32:45;;;;;;;12.23;8.30;;;0.70;99.90;;;;;;5091492;28;20439;-74
2023/02/09 08:35:12;;;;;;;33.23;9.60;;;0.60;99.90;;;;;;5091857;28;20803;-74
2023/02/09 08:37:38;;;;;;;14.27;8.03;;;0.70;99.90;;;;;;5091836;28;20445;-74
2023/02/09 08:40:06;;;;;;;19.13;8.23;;;0.60;99.90;;;;;;5092116;28;20449;-74
2023/02/09 08:42:34;;;;;;;14.43;8.53;;;0.70;99.90;;;;;;5086716;28;20443;-74
2023/02/09 08:45:01;;;;;;;13.97;8.63;;;0.80;99.90;;;;;;5085256;28;20452;-73
2023/02/09 08:47:27;;;;;;;27.35;9.43;;;0.90;99.90;;;;;;5092421;28;20422;-74
2023/02/09 08:49:54;;;;;;;25.50;10.30;;;0.90;99.90;;;;;;5093383;28;20205;-74
2023/02/09 08:52:21;;;;;;;22.03;8.97;;;0.90;99.90;;;;;;5096511;28;20472;-76
2023/02/09 08:54:48;;;;;;;14.40;7.87;;;1.00;99.90;;;;;;5095366;28;20433;-76
2023/02/09 08:57:14;;;;;;;20.17;9.27;;;1.00;99.90;;;;;;5095169;28;20823;-73
2023/02/09 08:59:43;;;;;;;19.60;8.13;;;1.00;99.90;;;;;;5095730;28;20943;-73
2023/02/09 09:02:09;;;;;;;16.17;8.93;;;1.00;99.90;;;;;;5096787;28;20480;-74
2023/02/09 09:04:36;;;;;;;21.17;9.20;;;1.00;99.90;;;;;;5095978;28;20469;-73
2023/02/09 09:07:03;;;;;;;17.30;8.47;;;1.10;99.90;;;;;;5094254;28;20477;-80
2023/02/09 09:09:30;;;;;;;57.67;15.67;;;1.20;99.90;;;;;;5097587;28;20457;-74
2023/02/09 09:11:57;;;;;;;41.17;10.77;;;1.30;99.90;;;;;;5097527;28;20460;-76
2023/02/09 09:14:25;;;;;;;20.93;8.90;;;1.40;99.90;;;;;;5101412;28;20434;-91
2023/02/09 09:16:57;;;;;;;13.43;8.90;;;1.50;99.90;;;;;;5092479;28;20490;-89
2023/02/09 09:19:24;;;;;;;14.57;8.77;;;1.60;99.90;;;;;;5094192;28;20544;-73
2023/02/09 09:21:51;;;;;;;14.87;8.53;;;1.50;99.90;;;;;;5095921;28;20461;-76
2023/02/09 09:24:17;;;;;;;16.53;8.20;;;1.40;99.90;;;;;;5098730;28;20455;-76
2023/02/09 09:26:44;;;;;;;14.17;8.27;;;1.50;99.90;;;;;;5096394;28;20442;-80
2023/02/09 09:29:11;;;;;;;15.57;8.77;;;1.60;99.90;;;;;;5096257;28;20444;-79
2023/02/09 09:31:38;;;;;;;19.00;9.30;;;1.70;99.90;;;;;;5095378;28;20442;-84
2023/02/09 09:34:06;;;;;;;18.10;9.20;;;1.80;99.90;;;;;;5096159;28;20449;-83
2023/02/09 09:36:33;;;;;;;14.57;8.63;;;1.90;99.90;;;;;;5095774;28;20441;-81
2023/02/09 09:38:59;;;;;;;17.67;8.60;;;2.00;99.90;;;;;;5096265;28;20446;-87
2023/02/09 09:41:31;;;;;;;16.63;9.00;;;2.10;99.90;;;;;;5093685;28;20481;-88
2023/02/09 09:44:00;;;;;;;21.00;9.17;;;2.20;99.90;;;;;;5096107;28;20446;-83
2023/02/09 09:46:35;;;;;;;16.48;8.77;;;2.10;99.90;;;;;;5084972;28;20400;-88
2023/02/09 09:49:03;;;;;;;14.97;8.47;;;2.10;99.90;;;;;;5094622;28;20211;-86
2023/02/09 09:51:39;;;;;;;18.37;9.23;;;2.10;99.90;;;;;;5094302;28;20445;-85
2023/02/09 09:54:14;;;;;;;17.47;9.17;;;2.20;99.90;;;;;;5094063;28;20450;-83
2023/02/09 09:56:41;;;;;;;20.67;10.00;;;2.20;99.90;;;;;;5085258;28;20468;-85
2023/02/09 09:59:17;;;;;;;15.83;8.67;;;2.20;99.90;;;;;;5087298;28;20445;-85
2023/02/09 10:01:44;;;;;;;14.20;9.33;;;2.30;99.90;;;;;;5095008;28;20485;-81
2023/02/09 10:04:14;;;;;;;11.87;8.60;;;2.30;99.90;;;;;;5095125;28;20453;-84
2023/02/09 10:06:45;;;;;;;20.07;10.03;;;2.40;99.90;;;;;;5092136;28;20442;-83
2023/02/09 10:09:25;;;;;;;11.73;8.60;;;2.50;99.90;;;;;;5095092;28;20939;-83
2023/02/09 10:12:00;;;;;;;21.63;9.83;;;2.50;99.90;;;;;;5091476;28;20940;-87
2023/02/09 10:14:33;;;;;;;12.53;9.00;;;2.60;99.90;;;;;;5093342;28;20445;-81
2023/02/09 10:17:00;;;;;;;18.98;11.38;;;2.60;99.90;;;;;;5088052;28;20428;-85
2023/02/09 10:19:29;;;;;;;14.53;9.13;;;2.50;99.90;;;;;;5085355;28;20237;-85
2023/02/09 10:21:58;;;;;;;16.53;10.47;;;2.60;99.90;;;;;;5086865;28;20486;-84
2023/02/09 10:24:27;;;;;;;16.30;9.50;;;2.80;99.90;;;;;;5085816;28;20474;-81
2023/02/09 10:27:13;;;;;;;14.13;8.73;;;2.70;99.90;;;;;;5090817;28;20469;-82
2023/02/09 10:29:41;;;;;;;18.07;10.27;;;2.60;99.90;;;;;;5085576;28;20466;-81
2023/02/09 10:32:16;;;;;;;13.97;9.60;;;2.70;99.90;;;;;;5085421;28;20465;-79
2023/02/09 10:34:47;;;;;;;12.53;9.63;;;2.70;99.90;;;;;;5088309;28;20464;-88
2023/02/09 10:37:25;;;;;;;15.67;9.17;;;2.80;99.90;;;;;;5085944;28;20458;-79
2023/02/09 10:39:59;;;;;;;15.73;8.93;;;3.00;99.90;;;;;;5089616;28;20434;-84
2023/02/09 10:42:30;;;;;;;16.17;9.70;;;3.00;99.90;;;;;;5092955;28;20492;-83
2023/02/09 10:45:12;;;;;;;17.27;9.30;;;3.10;99.90;;;;;;5094157;28;20932;-87
2023/02/09 10:47:39;;;;;;;19.42;12.48;;;3.20;99.90;;;;;;5083115;28;20499;-80
2023/02/09 10:50:17;;;;;;;16.87;10.50;;;3.60;99.90;;;;;;5093905;28;20205;-81
2023/02/09 10:52:58;;;;;;;16.67;9.83;;;3.80;99.90;;;;;;5093864;28;20476;-88
2023/02/09 10:55:29;;;;;;;16.73;9.77;;;4.20;99.90;;;;;;5093908;28;20454;-88
2023/02/09 10:58:11;;;;;;;21.37;9.87;;;4.30;99.90;;;;;;5086461;28;20472;-88
2023/02/09 11:00:47;;;;;;;14.77;10.37;;;4.30;99.90;;;;;;5084451;28;20815;-82
2023/02/09 11:03:17;;;;;;;16.63;10.47;;;4.50;99.90;;;;;;5091987;28;20449;-84
2023/02/09 11:05:46;;;;;;;15.57;9.90;;;4.50;99.90;;;;;;5078467;28;20201;-88
2023/02/09 11:08:21;;;;;;;17.53;10.37;;;4.70;99.90;;;;;;5093810;28;20491;-87
2023/02/09 11:11:00;;;;;;;15.80;10.43;;;4.50;99.90;;;;;;5090928;28;20205;-89
2023/02/09 11:13:28;;;;;;;18.00;13.50;;;4.50;99.90;;;;;;5087750;28;20431;-88
2023/02/09 11:16:35;;;;;;;15.77;11.57;;;4.50;99.90;;;;;;5100723;28;20205;-87
2023/02/09 11:19:12;;;;;;;16.33;11.00;;;4.50;99.90;;;;;;5071287;28;20221;-88
2023/02/09 11:21:52;;;;;;;17.73;11.27;;;4.50;99.90;;;;;;5093067;28;20484;-86
2023/02/09 11:24:32;;;;;;;16.60;11.43;;;4.60;99.90;;;;;;5087256;28;20383;-82
2023/02/09 11:27:04;;;;;;;16.37;11.33;;;4.80;99.90;;;;;;5096348;28;20461;-85
2023/02/09 11:29:37;;;;;;;18.03;11.70;;;4.70;99.90;;;;;;5084830;28;20198;-85
2023/02/09 11:32:19;;;;;;;19.80;13.25;;;4.80;99.90;;;;;;5083111;28;20430;-87
2023/02/09 11:35:01;;;;;;;15.97;11.13;;;4.90;99.90;;;;;;5081921;28;20297;-88
2023/02/09 11:37:37;;;;;;;15.20;11.77;;;5.00;99.90;;;;;;5095097;28;20212;-88
2023/02/09 11:40:31;;;;;;;18.03;12.20;;;5.10;99.90;;;;;;5095118;28;20201;-90
2023/02/09 11:43:17;;;;;;;21.43;11.83;;;5.00;99.90;;;;;;5100184;28;20240;-88
2023/02/09 11:45:46;;;;;;;23.13;11.87;;;5.00;99.90;;;;;;5098783;28;20287;-87
2023/02/09 11:48:19;;;;;;;16.87;11.73;;;5.00;99.90;;;;;;5081940;28;20619;-90
2023/02/09 11:50:56;;;;;;;15.73;11.83;;;5.10;99.90;;;;;;5093828;28;20300;-89
2023/02/09 11:53:31;;;;;;;19.70;11.83;;;5.30;99.90;;;;;;5073675;28;20244;-86
2023/02/09 11:56:02;;;;;;;18.00;15.50;;;5.30;99.90;;;;;;5088929;28;20418;-89
2023/02/09 11:58:47;;;;;;;16.53;12.63;;;5.50;99.90;;;;;;5093068;28;20197;-85
2023/02/09 12:01:36;;;;;;;17.47;12.67;;;5.60;99.90;;;;;;5089372;28;20644;-86
2023/02/09 12:04:15;;;;;;;26.43;13.47;;;5.90;99.90;;;;;;5074416;28;20194;-89
2023/02/09 12:06:48;;;;;;;17.97;12.33;;;6.00;99.90;;;;;;5087525;28;20891;-89
2023/02/09 12:09:33;;;;;;;20.17;12.90;;;5.80;99.90;;;;;;5084961;28;20198;-86
2023/02/09 12:12:09;;;;;;;17.60;12.20;;;5.90;99.90;;;;;;5081423;28;20215;-85
2023/02/09 12:15:01;;;;;;;19.20;12.53;;;5.60;99.90;;;;;;5080914;28;20205;-86
2023/02/09 12:17:37;;;;;;;18.03;12.87;;;5.70;99.90;;;;;;5082352;28;20209;-87
2023/02/09 12:20:05;;;;;;;19.40;12.37;;;5.70;99.90;;;;;;5081347;28;20652;-85
2023/02/09 12:23:01;;;;;;;54.70;16.50;;;5.80;99.90;;;;;;5093352;28;20652;-84
2023/02/09 12:25:48;;;;;;;26.57;14.73;;;5.80;99.90;;;;;;5088904;28;20665;-86
2023/02/09 12:28:38;;;;;;;23.63;13.80;;;5.90;99.90;;;;;;5095320;28;20208;-87
2023/02/09 12:31:08;;;;;;;18.40;12.87;;;6.10;99.90;;;;;;5101349;28;20656;-88
2023/02/09 12:33:38;;;;;;;19.90;13.87;;;5.80;99.90;;;;;;5093547;28;20201;-87
2023/02/09 12:36:29;;;;;;;20.37;13.60;;;5.60;99.90;;;;;;5096137;28;20223;-89
2023/02/09 12:39:04;;;;;;;17.53;13.07;;;5.70;99.90;;;;;;5092414;28;20239;-83
2023/02/09 12:42:09;;;;;;;23.23;14.50;;;5.90;99.90;;;;;;5109551;28;20235;-91
2023/02/09 12:44:53;;;;;;;21.07;14.53;;;6.10;99.90;;;;;;5099355;28;20648;-85
2023/02/09 12:47:44;;;;;;;22.17;15.47;;;6.10;99.90;;;;;;5099111;28;20268;-84
2023/02/09 12:50:44;;;;;;;18.57;13.83;;;6.10;99.90;;;;;;5102451;28;20679;-79
2023/02/09 12:53:46;;;;;;;18.70;13.50;;;6.10;99.90;;;;;;5095214;28;20576;-81
2023/02/09 12:56:32;;;;;;;20.50;14.63;;;5.90;99.90;;;;;;5088598;28;20655;-82
2023/02/09 12:59:25;;;;;;;21.63;14.43;;;6.00;99.90;;;;;;5082387;28;20687;-81
2023/02/09 13:02:24;;;;;;;19.07;14.33;;;6.30;99.90;;;;;;5088508;28;20209;-82
2023/02/09 13:04:58;;;;;;;18.27;14.40;;;6.50;99.90;;;;;;5106566;28;20209;-81
2023/02/09 13:07:49;;;;;;;24.67;15.00;;;6.40;99.90;;;;;;5096514;28;20208;-85
2023/02/09 13:10:23;;;;;;;23.03;14.47;;;6.50;99.90;;;;;;5091145;28;20208;-83
2023/02/09 13:12:58;;;;;;;35.77;15.67;;;6.50;99.90;;;;;;5105802;28;20201;-90